aviador You're here:

KTVF Decoded Metar

THIEF RIVER in MN, USA
Report Time2017-09-25 20:01:00
UTC Time2017-09-25 20:36:51
Flight Rules mvfr MVFR
Wind350° at 10 kt
W.Decomp.*RWY 31: 8.2 kt HW 5.7 kt RCW
RWY 03: 7.1 kt HW 7.1 kt LCW
W.Rank350° ranks 18
Current wind is above 350° avg. (9.9)
Visibility9999 m
Phenomena:N/A
Clouds:Overcast 016 Hf
Expected CloudBase > 1,200 ft AGL from Temp-Dew spread
Ceiling1,600 ft
Temp11°C (ISA -2)
Dew Point08°C (82% RH)
AAT6.9°C
QNH1020 hPa
Density Alt814 ft
Elevation1,115 ft
Report Wrong Elevation
Raw Report
METAR KTVF 252001Z AUTO 35010KT 10SM OVC016 11/08 A3011 RMK AO2 SLP204
T01110078=

Extra information for KTVF:More info

Metar Taf Metar & Taf Last 4 Metars F.Rules Stats Wind Profile Meteogram Temp Stats Airport Information Weather charts Add Link Nearby VenuesMetar ALERT Operation Metar Decoded Social comments

AIRNAV info for KTVF